sensor_id;sensor_type;location;lat;lon;timestamp;P1;durP1;ratioP1;P2;durP2;ratioP2
23747;SDS011;12054;53.662;10.126;2023-07-20T00:02:19;2.17;;;1.65;;
23747;SDS011;12054;53.662;10.126;2023-07-20T00:04:45;1.92;;;1.70;;
23747;SDS011;12054;53.662;10.126;2023-07-20T00:07:10;1.90;;;1.75;;
23747;SDS011;12054;53.662;10.126;2023-07-20T00:09:35;2.20;;;1.40;;
23747;SDS011;12054;53.662;10.126;2023-07-20T00:12:01;3.28;;;1.60;;
23747;SDS011;12054;53.662;10.126;2023-07-20T00:14:26;2.17;;;1.48;;
23747;SDS011;12054;53.662;10.126;2023-07-20T00:16:52;4.88;;;1.58;;
23747;SDS011;12054;53.662;10.126;2023-07-20T00:19:23;4.60;;;1.70;;
23747;SDS011;12054;53.662;10.126;2023-07-20T00:21:52;3.47;;;1.50;;
23747;SDS011;12054;53.662;10.126;2023-07-20T00:24:18;3.20;;;1.88;;
23747;SDS011;12054;53.662;10.126;2023-07-20T00:26:43;3.00;;;1.80;;
23747;SDS011;12054;53.662;10.126;2023-07-20T00:29:09;3.00;;;1.80;;
23747;SDS011;12054;53.662;10.126;2023-07-20T00:31:35;4.13;;;1.70;;
23747;SDS011;12054;53.662;10.126;2023-07-20T00:34:02;3.25;;;1.95;;
23747;SDS011;12054;53.662;10.126;2023-07-20T00:36:28;6.28;;;2.58;;
23747;SDS011;12054;53.662;10.126;2023-07-20T00:38:53;8.45;;;1.77;;
23747;SDS011;12054;53.662;10.126;2023-07-20T00:41:19;2.35;;;1.80;;
23747;SDS011;12054;53.662;10.126;2023-07-20T00:43:45;2.20;;;1.73;;
23747;SDS011;12054;53.662;10.126;2023-07-20T00:46:10;2.47;;;2.15;;
23747;SDS011;12054;53.662;10.126;2023-07-20T00:48:36;4.03;;;1.92;;
23747;SDS011;12054;53.662;10.126;2023-07-20T00:51:02;2.70;;;2.50;;
23747;SDS011;12054;53.662;10.126;2023-07-20T00:53:28;2.25;;;2.05;;
23747;SDS011;12054;53.662;10.126;2023-07-20T00:55:53;3.35;;;2.22;;
23747;SDS011;12054;53.662;10.126;2023-07-20T00:58:19;3.90;;;2.35;;
23747;SDS011;12054;53.662;10.126;2023-07-20T01:00:45;4.05;;;2.95;;
23747;SDS011;12054;53.662;10.126;2023-07-20T01:03:12;4.78;;;3.13;;
23747;SDS011;12054;53.662;10.126;2023-07-20T01:05:47;3.85;;;2.90;;
23747;SDS011;12054;53.662;10.126;2023-07-20T01:11:08;4.15;;;3.00;;
23747;SDS011;12054;53.662;10.126;2023-07-20T01:13:40;4.18;;;2.75;;
23747;SDS011;12054;53.662;10.126;2023-07-20T01:16:06;3.97;;;2.50;;
23747;SDS011;12054;53.662;10.126;2023-07-20T01:18:31;4.50;;;2.63;;
23747;SDS011;12054;53.662;10.126;2023-07-20T01:20:59;5.53;;;3.00;;
23747;SDS011;12054;53.662;10.126;2023-07-20T01:29:17;3.70;;;3.28;;
23747;SDS011;12054;53.662;10.126;2023-07-20T01:32:04;4.93;;;3.30;;
23747;SDS011;12054;53.662;10.126;2023-07-20T01:34:32;4.22;;;2.88;;
23747;SDS011;12054;53.662;10.126;2023-07-20T01:37:00;3.42;;;3.00;;
23747;SDS011;12054;53.662;10.126;2023-07-20T01:39:26;4.80;;;3.28;;
23747;SDS011;12054;53.662;10.126;2023-07-20T01:41:52;3.92;;;3.28;;
23747;SDS011;12054;53.662;10.126;2023-07-20T01:44:18;3.53;;;2.90;;
23747;SDS011;12054;53.662;10.126;2023-07-20T01:46:44;4.75;;;2.95;;
23747;SDS011;12054;53.662;10.126;2023-07-20T01:49:09;4.43;;;3.58;;
23747;SDS011;12054;53.662;10.126;2023-07-20T01:51:35;4.10;;;3.30;;
23747;SDS011;12054;53.662;10.126;2023-07-20T01:54:00;6.05;;;3.67;;
23747;SDS011;12054;53.662;10.126;2023-07-20T01:56:26;4.20;;;3.65;;
23747;SDS011;12054;53.662;10.126;2023-07-20T01:58:51;5.07;;;3.92;;
23747;SDS011;12054;53.662;10.126;2023-07-20T02:01:17;4.80;;;3.72;;
23747;SDS011;12054;53.662;10.126;2023-07-20T02:03:42;3.65;;;3.33;;
23747;SDS011;12054;53.662;10.126;2023-07-20T02:06:08;5.32;;;4.18;;
23747;SDS011;12054;53.662;10.126;2023-07-20T02:08:33;6.10;;;3.80;;
23747;SDS011;12054;53.662;10.126;2023-07-20T02:10:58;6.05;;;3.92;;
23747;SDS011;12054;53.662;10.126;2023-07-20T02:13:24;4.60;;;3.67;;
23747;SDS011;12054;53.662;10.126;2023-07-20T02:15:49;5.78;;;4.18;;
23747;SDS011;12054;53.662;10.126;2023-07-20T02:18:16;6.18;;;4.18;;
23747;SDS011;12054;53.662;10.126;2023-07-20T02:20:41;4.25;;;3.58;;
23747;SDS011;12054;53.662;10.126;2023-07-20T02:23:07;4.97;;;4.30;;
23747;SDS011;12054;53.662;10.126;2023-07-20T02:25:33;5.93;;;4.20;;
23747;SDS011;12054;53.662;10.126;2023-07-20T02:27:58;5.78;;;4.43;;
23747;SDS011;12054;53.662;10.126;2023-07-20T02:30:24;5.28;;;4.40;;
23747;SDS011;12054;53.662;10.126;2023-07-20T02:32:49;5.63;;;4.60;;
23747;SDS011;12054;53.662;10.126;2023-07-20T02:35:15;5.80;;;4.38;;
23747;SDS011;12054;53.662;10.126;2023-07-20T02:37:41;4.78;;;4.10;;
23747;SDS011;12054;53.662;10.126;2023-07-20T02:40:07;9.32;;;5.05;;
23747;SDS011;12054;53.662;10.126;2023-07-20T02:42:33;7.13;;;4.78;;
23747;SDS011;12054;53.662;10.126;2023-07-20T02:44:59;7.57;;;4.57;;
23747;SDS011;12054;53.662;10.126;2023-07-20T02:47:24;5.60;;;4.40;;
23747;SDS011;12054;53.662;10.126;2023-07-20T02:49:50;6.53;;;5.15;;
23747;SDS011;12054;53.662;10.126;2023-07-20T02:52:16;6.80;;;5.30;;
23747;SDS011;12054;53.662;10.126;2023-07-20T02:54:41;6.65;;;5.10;;
23747;SDS011;12054;53.662;10.126;2023-07-20T02:57:07;8.48;;;5.45;;
23747;SDS011;12054;53.662;10.126;2023-07-20T02:59:32;7.13;;;5.70;;
23747;SDS011;12054;53.662;10.126;2023-07-20T03:01:58;7.25;;;5.40;;
23747;SDS011;12054;53.662;10.126;2023-07-20T03:04:25;7.22;;;5.43;;
23747;SDS011;12054;53.662;10.126;2023-07-20T03:06:51;8.10;;;5.65;;
23747;SDS011;12054;53.662;10.126;2023-07-20T03:09:17;6.80;;;4.82;;
23747;SDS011;12054;53.662;10.126;2023-07-20T03:11:42;7.38;;;5.70;;
23747;SDS011;12054;53.662;10.126;2023-07-20T03:14:08;7.07;;;5.75;;
23747;SDS011;12054;53.662;10.126;2023-07-20T03:16:35;6.78;;;5.47;;
23747;SDS011;12054;53.662;10.126;2023-07-20T03:19:01;7.28;;;5.72;;
23747;SDS011;12054;53.662;10.126;2023-07-20T03:21:27;7.32;;;5.40;;
23747;SDS011;12054;53.662;10.126;2023-07-20T03:23:52;7.18;;;5.72;;
23747;SDS011;12054;53.662;10.126;2023-07-20T03:26:18;7.05;;;5.78;;
23747;SDS011;12054;53.662;10.126;2023-07-20T03:28:44;8.80;;;5.90;;
23747;SDS011;12054;53.662;10.126;2023-07-20T03:31:09;7.10;;;5.63;;
23747;SDS011;12054;53.662;10.126;2023-07-20T03:33:36;10.02;;;6.55;;
23747;SDS011;12054;53.662;10.126;2023-07-20T03:36:01;9.75;;;6.03;;
23747;SDS011;12054;53.662;10.126;2023-07-20T03:38:27;8.75;;;5.97;;
23747;SDS011;12054;53.662;10.126;2023-07-20T03:40:53;9.40;;;6.80;;
23747;SDS011;12054;53.662;10.126;2023-07-20T03:43:24;8.38;;;6.57;;
23747;SDS011;12054;53.662;10.126;2023-07-20T03:45:51;8.75;;;6.57;;
23747;SDS011;12054;53.662;10.126;2023-07-20T03:48:17;8.18;;;5.97;;
23747;SDS011;12054;53.662;10.126;2023-07-20T03:50:44;7.65;;;6.65;;
23747;SDS011;12054;53.662;10.126;2023-07-20T03:53:11;9.48;;;6.25;;
23747;SDS011;12054;53.662;10.126;2023-07-20T03:55:37;7.88;;;5.90;;
23747;SDS011;12054;53.662;10.126;2023-07-20T03:58:03;8.13;;;6.25;;
23747;SDS011;12054;53.662;10.126;2023-07-20T04:00:28;10.52;;;7.22;;
23747;SDS011;12054;53.662;10.126;2023-07-20T04:02:54;8.10;;;6.68;;
23747;SDS011;12054;53.662;10.126;2023-07-20T04:05:19;9.10;;;7.47;;
23747;SDS011;12054;53.662;10.126;2023-07-20T04:07:45;9.90;;;6.65;;
23747;SDS011;12054;53.662;10.126;2023-07-20T04:10:10;8.18;;;7.07;;
23747;SDS011;12054;53.662;10.126;2023-07-20T04:12:36;6.75;;;6.05;;
23747;SDS011;12054;53.662;10.126;2023-07-20T04:15:01;7.28;;;6.43;;
23747;SDS011;12054;53.662;10.126;2023-07-20T04:17:29;7.78;;;6.15;;
23747;SDS011;12054;53.662;10.126;2023-07-20T04:19:54;7.25;;;6.43;;
23747;SDS011;12054;53.662;10.126;2023-07-20T04:22:20;7.80;;;6.05;;
23747;SDS011;12054;53.662;10.126;2023-07-20T04:24:46;8.70;;;6.13;;
23747;SDS011;12054;53.662;10.126;2023-07-20T04:27:12;7.25;;;5.75;;
23747;SDS011;12054;53.662;10.126;2023-07-20T04:29:37;7.32;;;5.97;;
23747;SDS011;12054;53.662;10.126;2023-07-20T04:32:03;7.57;;;6.20;;
23747;SDS011;12054;53.662;10.126;2023-07-20T04:34:28;6.97;;;6.05;;
23747;SDS011;12054;53.662;10.126;2023-07-20T04:36:54;8.15;;;5.63;;
23747;SDS011;12054;53.662;10.126;2023-07-20T04:39:19;6.93;;;6.05;;
23747;SDS011;12054;53.662;10.126;2023-07-20T04:41:45;8.93;;;6.13;;
23747;SDS011;12054;53.662;10.126;2023-07-20T04:44:10;6.22;;;5.30;;
23747;SDS011;12054;53.662;10.126;2023-07-20T04:46:36;7.18;;;5.82;;
23747;SDS011;12054;53.662;10.126;2023-07-20T04:49:01;7.70;;;5.90;;
23747;SDS011;12054;53.662;10.126;2023-07-20T04:51:27;6.55;;;5.72;;
23747;SDS011;12054;53.662;10.126;2023-07-20T04:53:55;9.05;;;6.00;;
23747;SDS011;12054;53.662;10.126;2023-07-20T04:56:21;6.00;;;5.40;;
23747;SDS011;12054;53.662;10.126;2023-07-20T04:58:48;7.38;;;5.40;;
23747;SDS011;12054;53.662;10.126;2023-07-20T05:01:13;8.00;;;5.25;;
23747;SDS011;12054;53.662;10.126;2023-07-20T05:03:39;6.03;;;5.07;;
23747;SDS011;12054;53.662;10.126;2023-07-20T05:06:04;5.82;;;4.93;;
23747;SDS011;12054;53.662;10.126;2023-07-20T05:08:30;4.95;;;4.25;;
23747;SDS011;12054;53.662;10.126;2023-07-20T05:10:55;5.32;;;4.60;;
23747;SDS011;12054;53.662;10.126;2023-07-20T05:13:21;5.53;;;4.68;;
23747;SDS011;12054;53.662;10.126;2023-07-20T05:15:46;5.80;;;3.78;;
23747;SDS011;12054;53.662;10.126;2023-07-20T05:18:15;4.45;;;3.42;;
23747;SDS011;12054;53.662;10.126;2023-07-20T05:20:45;3.83;;;3.53;;
23747;SDS011;12054;53.662;10.126;2023-07-20T05:23:14;4.07;;;3.50;;
23747;SDS011;12054;53.662;10.126;2023-07-20T05:25:40;4.55;;;3.70;;
23747;SDS011;12054;53.662;10.126;2023-07-20T05:28:06;3.88;;;3.47;;
23747;SDS011;12054;53.662;10.126;2023-07-20T05:30:31;3.70;;;3.22;;
23747;SDS011;12054;53.662;10.126;2023-07-20T05:32:58;3.40;;;3.10;;
23747;SDS011;12054;53.662;10.126;2023-07-20T05:35:23;3.63;;;3.00;;
23747;SDS011;12054;53.662;10.126;2023-07-20T05:37:50;2.95;;;2.58;;
23747;SDS011;12054;53.662;10.126;2023-07-20T05:40:16;3.38;;;3.08;;
23747;SDS011;12054;53.662;10.126;2023-07-20T05:42:45;4.35;;;2.85;;
23747;SDS011;12054;53.662;10.126;2023-07-20T05:45:13;3.70;;;2.10;;
23747;SDS011;12054;53.662;10.126;2023-07-20T05:47:39;4.75;;;2.20;;
23747;SDS011;12054;53.662;10.126;2023-07-20T05:50:05;3.15;;;2.10;;
23747;SDS011;12054;53.662;10.126;2023-07-20T05:52:30;3.00;;;2.38;;
23747;SDS011;12054;53.662;10.126;2023-07-20T05:54:57;2.35;;;2.15;;
23747;SDS011;12054;53.662;10.126;2023-07-20T05:57:22;2.10;;;1.90;;
23747;SDS011;12054;53.662;10.126;2023-07-20T05:59:48;1.95;;;1.65;;
23747;SDS011;12054;53.662;10.126;2023-07-20T06:02:13;2.58;;;1.70;;
23747;SDS011;12054;53.662;10.126;2023-07-20T06:04:39;2.50;;;1.60;;
23747;SDS011;12054;53.662;10.126;2023-07-20T06:07:04;3.58;;;1.77;;
23747;SDS011;12054;53.662;10.126;2023-07-20T06:09:32;1.88;;;1.35;;
23747;SDS011;12054;53.662;10.126;2023-07-20T06:11:58;2.60;;;1.63;;
23747;SDS011;12054;53.662;10.126;2023-07-20T06:14:23;3.05;;;1.40;;
23747;SDS011;12054;53.662;10.126;2023-07-20T06:16:48;2.72;;;1.50;;
23747;SDS011;12054;53.662;10.126;2023-07-20T06:19:14;1.80;;;1.52;;
23747;SDS011;12054;53.662;10.126;2023-07-20T06:21:40;2.42;;;1.60;;
23747;SDS011;12054;53.662;10.126;2023-07-20T06:24:05;1.75;;;1.52;;
23747;SDS011;12054;53.662;10.126;2023-07-20T06:26:31;2.17;;;1.30;;
23747;SDS011;12054;53.662;10.126;2023-07-20T06:29:03;3.40;;;1.40;;
23747;SDS011;12054;53.662;10.126;2023-07-20T06:31:28;2.30;;;1.23;;
23747;SDS011;12054;53.662;10.126;2023-07-20T06:33:54;1.88;;;1.30;;
23747;SDS011;12054;53.662;10.126;2023-07-20T06:36:19;2.60;;;1.40;;
23747;SDS011;12054;53.662;10.126;2023-07-20T06:38:46;4.95;;;1.75;;
23747;SDS011;12054;53.662;10.126;2023-07-20T06:41:11;3.03;;;1.50;;
23747;SDS011;12054;53.662;10.126;2023-07-20T06:43:37;3.00;;;1.58;;
23747;SDS011;12054;53.662;10.126;2023-07-20T06:46:02;2.72;;;1.50;;
23747;SDS011;12054;53.662;10.126;2023-07-20T06:48:28;1.70;;;1.50;;
23747;SDS011;12054;53.662;10.126;2023-07-20T06:50:53;3.28;;;1.40;;
23747;SDS011;12054;53.662;10.126;2023-07-20T06:53:19;8.90;;;1.55;;
23747;SDS011;12054;53.662;10.126;2023-07-20T06:55:44;3.08;;;1.60;;
23747;SDS011;12054;53.662;10.126;2023-07-20T06:58:10;2.05;;;1.50;;
23747;SDS011;12054;53.662;10.126;2023-07-20T07:00:36;2.80;;;1.50;;
23747;SDS011;12054;53.662;10.126;2023-07-20T07:03:02;2.80;;;1.15;;
23747;SDS011;12054;53.662;10.126;2023-07-20T07:05:27;1.58;;;1.33;;
23747;SDS011;12054;53.662;10.126;2023-07-20T07:07:53;4.93;;;1.45;;
23747;SDS011;12054;53.662;10.126;2023-07-20T07:10:18;1.63;;;1.13;;
23747;SDS011;12054;53.662;10.126;2023-07-20T07:12:44;2.28;;;1.15;;
23747;SDS011;12054;53.662;10.126;2023-07-20T07:15:09;1.50;;;0.93;;
23747;SDS011;12054;53.662;10.126;2023-07-20T07:17:35;3.47;;;1.20;;
23747;SDS011;12054;53.662;10.126;2023-07-20T07:20:01;4.50;;;1.42;;
23747;SDS011;12054;53.662;10.126;2023-07-20T07:22:28;2.30;;;1.40;;
23747;SDS011;12054;53.662;10.126;2023-07-20T07:24:54;4.55;;;1.13;;
23747;SDS011;12054;53.662;10.126;2023-07-20T07:27:20;3.97;;;1.20;;
23747;SDS011;12054;53.662;10.126;2023-07-20T07:29:45;1.13;;;0.98;;
23747;SDS011;12054;53.662;10.126;2023-07-20T07:32:11;2.40;;;1.20;;
23747;SDS011;12054;53.662;10.126;2023-07-20T07:34:37;3.78;;;1.40;;
23747;SDS011;12054;53.662;10.126;2023-07-20T07:37:04;3.30;;;1.80;;
23747;SDS011;12054;53.662;10.126;2023-07-20T07:39:30;1.70;;;1.00;;
23747;SDS011;12054;53.662;10.126;2023-07-20T07:41:56;3.58;;;1.30;;
23747;SDS011;12054;53.662;10.126;2023-07-20T07:44:22;3.25;;;1.10;;
23747;SDS011;12054;53.662;10.126;2023-07-20T07:46:47;2.50;;;1.20;;
23747;SDS011;12054;53.662;10.126;2023-07-20T07:49:13;4.20;;;1.55;;
23747;SDS011;12054;53.662;10.126;2023-07-20T07:51:39;2.03;;;1.08;;
23747;SDS011;12054;53.662;10.126;2023-07-20T07:54:05;2.40;;;1.23;;
23747;SDS011;12054;53.662;10.126;2023-07-20T07:56:30;2.63;;;1.42;;
23747;SDS011;12054;53.662;10.126;2023-07-20T07:58:56;2.03;;;1.48;;
23747;SDS011;12054;53.662;10.126;2023-07-20T08:01:21;3.03;;;1.10;;
23747;SDS011;12054;53.662;10.126;2023-07-20T08:03:47;2.10;;;1.20;;
23747;SDS011;12054;53.662;10.126;2023-07-20T08:06:13;3.55;;;1.40;;
23747;SDS011;12054;53.662;10.126;2023-07-20T08:08:39;2.17;;;1.33;;
23747;SDS011;12054;53.662;10.126;2023-07-20T08:11:04;4.43;;;1.70;;
23747;SDS011;12054;53.662;10.126;2023-07-20T08:13:30;5.03;;;1.40;;
23747;SDS011;12054;53.662;10.126;2023-07-20T08:15:56;2.58;;;1.42;;
23747;SDS011;12054;53.662;10.126;2023-07-20T08:18:22;2.88;;;1.30;;
23747;SDS011;12054;53.662;10.126;2023-07-20T08:20:48;5.35;;;1.50;;
23747;SDS011;12054;53.662;10.126;2023-07-20T08:23:14;4.57;;;1.45;;
23747;SDS011;12054;53.662;10.126;2023-07-20T08:25:40;4.75;;;1.90;;
23747;SDS011;12054;53.662;10.126;2023-07-20T08:28:09;3.10;;;1.55;;
23747;SDS011;12054;53.662;10.126;2023-07-20T08:30:39;6.70;;;2.10;;
23747;SDS011;12054;53.662;10.126;2023-07-20T08:33:15;3.22;;;1.70;;
23747;SDS011;12054;53.662;10.126;2023-07-20T08:35:43;6.68;;;2.67;;
23747;SDS011;12054;53.662;10.126;2023-07-20T08:38:08;6.45;;;1.90;;
23747;SDS011;12054;53.662;10.126;2023-07-20T08:40:39;4.65;;;1.50;;
23747;SDS011;12054;53.662;10.126;2023-07-20T08:43:05;6.32;;;1.83;;
23747;SDS011;12054;53.662;10.126;2023-07-20T08:45:32;3.72;;;1.48;;
23747;SDS011;12054;53.662;10.126;2023-07-20T08:47:59;3.75;;;1.50;;
23747;SDS011;12054;53.662;10.126;2023-07-20T08:50:29;3.78;;;1.92;;
23747;SDS011;12054;53.662;10.126;2023-07-20T08:52:57;5.65;;;1.30;;
23747;SDS011;12054;53.662;10.126;2023-07-20T08:55:24;3.08;;;1.20;;
23747;SDS011;12054;53.662;10.126;2023-07-20T08:57:53;3.40;;;1.23;;
23747;SDS011;12054;53.662;10.126;2023-07-20T09:00:21;3.45;;;1.20;;
23747;SDS011;12054;53.662;10.126;2023-07-20T09:02:49;3.47;;;1.08;;
23747;SDS011;12054;53.662;10.126;2023-07-20T09:05:16;4.50;;;1.38;;
23747;SDS011;12054;53.662;10.126;2023-07-20T09:07:42;5.40;;;1.65;;
23747;SDS011;12054;53.662;10.126;2023-07-20T09:10:08;3.63;;;1.08;;
23747;SDS011;12054;53.662;10.126;2023-07-20T09:12:35;1.88;;;1.00;;
23747;SDS011;12054;53.662;10.126;2023-07-20T09:15:02;3.97;;;1.45;;
23747;SDS011;12054;53.662;10.126;2023-07-20T09:17:27;2.25;;;1.02;;
23747;SDS011;12054;53.662;10.126;2023-07-20T09:19:53;2.05;;;1.05;;
23747;SDS011;12054;53.662;10.126;2023-07-20T09:22:19;2.20;;;0.82;;
23747;SDS011;12054;53.662;10.126;2023-07-20T09:24:44;2.88;;;0.93;;
23747;SDS011;12054;53.662;10.126;2023-07-20T09:27:10;1.73;;;0.80;;
23747;SDS011;12054;53.662;10.126;2023-07-20T09:29:47;1.38;;;0.68;;
23747;SDS011;12054;53.662;10.126;2023-07-20T09:32:19;2.85;;;0.90;;
23747;SDS011;12054;53.662;10.126;2023-07-20T09:34:46;2.17;;;0.77;;
23747;SDS011;12054;53.662;10.126;2023-07-20T09:37:12;3.90;;;1.00;;
23747;SDS011;12054;53.662;10.126;2023-07-20T09:39:44;2.05;;;0.82;;
23747;SDS011;12054;53.662;10.126;2023-07-20T09:42:11;1.45;;;0.70;;
23747;SDS011;12054;53.662;10.126;2023-07-20T09:44:40;2.38;;;0.90;;
23747;SDS011;12054;53.662;10.126;2023-07-20T09:47:08;2.67;;;1.13;;
23747;SDS011;12054;53.662;10.126;2023-07-20T09:49:38;3.03;;;0.90;;
23747;SDS011;12054;53.662;10.126;2023-07-20T09:52:05;2.83;;;0.85;;
23747;SDS011;12054;53.662;10.126;2023-07-20T09:54:33;2.30;;;0.80;;
23747;SDS011;12054;53.662;10.126;2023-07-20T09:56:58;0.52;;;0.50;;
23747;SDS011;12054;53.662;10.126;2023-07-20T09:59:27;2.13;;;0.70;;
23747;SDS011;12054;53.662;10.126;2023-07-20T10:01:53;1.40;;;0.50;;
23747;SDS011;12054;53.662;10.126;2023-07-20T10:04:22;1.52;;;0.60;;
23747;SDS011;12054;53.662;10.126;2023-07-20T10:06:49;2.05;;;0.70;;
23747;SDS011;12054;53.662;10.126;2023-07-20T10:09:19;1.77;;;0.30;;
23747;SDS011;12054;53.662;10.126;2023-07-20T10:11:49;1.38;;;0.50;;
23747;SDS011;12054;53.662;10.126;2023-07-20T10:14:16;2.05;;;0.60;;
23747;SDS011;12054;53.662;10.126;2023-07-20T10:16:51;2.63;;;0.60;;
23747;SDS011;12054;53.662;10.126;2023-07-20T10:19:23;1.50;;;0.50;;
23747;SDS011;12054;53.662;10.126;2023-07-20T10:21:57;2.05;;;0.50;;
23747;SDS011;12054;53.662;10.126;2023-07-20T10:24:28;2.47;;;0.70;;
23747;SDS011;12054;53.662;10.126;2023-07-20T10:26:56;3.88;;;0.70;;
23747;SDS011;12054;53.662;10.126;2023-07-20T10:29:22;2.30;;;0.70;;
23747;SDS011;12054;53.662;10.126;2023-07-20T10:31:49;1.92;;;0.50;;
23747;SDS011;12054;53.662;10.126;2023-07-20T10:34:15;1.58;;;0.50;;
23747;SDS011;12054;53.662;10.126;2023-07-20T10:36:44;1.58;;;0.43;;
23747;SDS011;12054;53.662;10.126;2023-07-20T10:39:24;1.95;;;0.40;;
23747;SDS011;12054;53.662;10.126;2023-07-20T10:41:59;1.67;;;0.52;;
23747;SDS011;12054;53.662;10.126;2023-07-20T10:44:28;1.92;;;0.47;;
23747;SDS011;12054;53.662;10.126;2023-07-20T10:47:00;2.88;;;0.60;;
23747;SDS011;12054;53.662;10.126;2023-07-20T10:49:26;2.00;;;0.68;;
23747;SDS011;12054;53.662;10.126;2023-07-20T10:51:56;3.28;;;0.70;;
23747;SDS011;12054;53.662;10.126;2023-07-20T10:56:54;2.97;;;0.95;;
23747;SDS011;12054;53.662;10.126;2023-07-20T11:01:50;0.93;;;0.60;;
23747;SDS011;12054;53.662;10.126;2023-07-20T11:04:39;1.33;;;0.60;;
23747;SDS011;12054;53.662;10.126;2023-07-20T11:07:05;4.00;;;0.77;;
23747;SDS011;12054;53.662;10.126;2023-07-20T11:09:34;2.45;;;0.60;;
23747;SDS011;12054;53.662;10.126;2023-07-20T11:12:10;1.25;;;0.60;;
23747;SDS011;12054;53.662;10.126;2023-07-20T11:14:42;1.45;;;0.60;;
23747;SDS011;12054;53.662;10.126;2023-07-20T11:17:29;3.20;;;0.60;;
23747;SDS011;12054;53.662;10.126;2023-07-20T11:19:55;1.77;;;0.40;;
23747;SDS011;12054;53.662;10.126;2023-07-20T11:22:22;1.10;;;0.50;;
23747;SDS011;12054;53.662;10.126;2023-07-20T11:24:47;2.38;;;0.60;;
23747;SDS011;12054;53.662;10.126;2023-07-20T11:27:14;3.22;;;0.55;;
23747;SDS011;12054;53.662;10.126;2023-07-20T11:29:40;1.75;;;0.55;;
23747;SDS011;12054;53.662;10.126;2023-07-20T11:32:05;3.72;;;1.00;;
23747;SDS011;12054;53.662;10.126;2023-07-20T11:34:31;1.00;;;0.50;;
23747;SDS011;12054;53.662;10.126;2023-07-20T11:37:00;1.83;;;0.60;;
23747;SDS011;12054;53.662;10.126;2023-07-20T11:39:26;1.40;;;0.43;;
23747;SDS011;12054;53.662;10.126;2023-07-20T11:41:53;2.67;;;0.70;;
23747;SDS011;12054;53.662;10.126;2023-07-20T11:44:22;3.25;;;1.10;;
23747;SDS011;12054;53.662;10.126;2023-07-20T11:47:02;2.92;;;0.70;;
23747;SDS011;12054;53.662;10.126;2023-07-20T11:49:35;1.55;;;0.68;;
23747;SDS011;12054;53.662;10.126;2023-07-20T11:52:06;1.75;;;0.40;;
23747;SDS011;12054;53.662;10.126;2023-07-20T11:54:34;3.55;;;0.63;;
23747;SDS011;12054;53.662;10.126;2023-07-20T11:57:01;3.50;;;0.85;;
23747;SDS011;12054;53.662;10.126;2023-07-20T11:59:27;3.35;;;0.80;;
23747;SDS011;12054;53.662;10.126;2023-07-20T12:01:52;5.10;;;1.10;;
23747;SDS011;12054;53.662;10.126;2023-07-20T12:04:18;2.20;;;0.70;;
23747;SDS011;12054;53.662;10.126;2023-07-20T12:06:45;2.97;;;0.82;;
23747;SDS011;12054;53.662;10.126;2023-07-20T12:09:13;1.23;;;0.60;;
23747;SDS011;12054;53.662;10.126;2023-07-20T12:11:42;1.35;;;0.63;;
23747;SDS011;12054;53.662;10.126;2023-07-20T12:14:09;3.78;;;0.90;;
23747;SDS011;12054;53.662;10.126;2023-07-20T12:16:35;2.17;;;0.60;;
23747;SDS011;12054;53.662;10.126;2023-07-20T12:19:03;3.03;;;0.70;;
23747;SDS011;12054;53.662;10.126;2023-07-20T12:21:34;2.35;;;0.60;;
23747;SDS011;12054;53.662;10.126;2023-07-20T12:24:02;3.88;;;0.63;;
23747;SDS011;12054;53.662;10.126;2023-07-20T12:26:29;3.80;;;0.70;;
23747;SDS011;12054;53.662;10.126;2023-07-20T12:28:55;2.67;;;0.77;;
23747;SDS011;12054;53.662;10.126;2023-07-20T12:31:20;1.67;;;0.75;;
23747;SDS011;12054;53.662;10.126;2023-07-20T12:33:47;2.65;;;0.70;;
23747;SDS011;12054;53.662;10.126;2023-07-20T12:36:13;2.25;;;0.90;;
23747;SDS011;12054;53.662;10.126;2023-07-20T12:38:39;2.70;;;0.90;;
23747;SDS011;12054;53.662;10.126;2023-07-20T12:41:09;4.35;;;1.20;;
23747;SDS011;12054;53.662;10.126;2023-07-20T12:43:37;2.60;;;0.80;;
23747;SDS011;12054;53.662;10.126;2023-07-20T12:46:03;3.35;;;0.80;;
23747;SDS011;12054;53.662;10.126;2023-07-20T12:48:28;2.58;;;0.80;;
23747;SDS011;12054;53.662;10.126;2023-07-20T12:50:54;2.35;;;0.90;;
23747;SDS011;12054;53.662;10.126;2023-07-20T12:53:20;3.83;;;1.00;;
23747;SDS011;12054;53.662;10.126;2023-07-20T12:55:45;3.53;;;1.00;;
23747;SDS011;12054;53.662;10.126;2023-07-20T12:58:11;2.17;;;0.98;;
23747;SDS011;12054;53.662;10.126;2023-07-20T13:00:38;3.92;;;1.20;;
23747;SDS011;12054;53.662;10.126;2023-07-20T13:03:03;3.03;;;0.85;;
23747;SDS011;12054;53.662;10.126;2023-07-20T13:05:30;2.13;;;0.70;;
23747;SDS011;12054;53.662;10.126;2023-07-20T13:07:57;3.30;;;0.98;;
23747;SDS011;12054;53.662;10.126;2023-07-20T13:10:23;2.63;;;0.80;;
23747;SDS011;12054;53.662;10.126;2023-07-20T13:12:49;3.70;;;1.20;;
23747;SDS011;12054;53.662;10.126;2023-07-20T13:15:15;2.25;;;0.80;;
23747;SDS011;12054;53.662;10.126;2023-07-20T13:17:42;1.73;;;0.70;;
23747;SDS011;12054;53.662;10.126;2023-07-20T13:20:08;1.85;;;0.60;;
23747;SDS011;12054;53.662;10.126;2023-07-20T13:22:36;3.97;;;0.90;;
23747;SDS011;12054;53.662;10.126;2023-07-20T13:25:02;2.65;;;0.70;;
23747;SDS011;12054;53.662;10.126;2023-07-20T13:27:28;2.17;;;0.90;;
23747;SDS011;12054;53.662;10.126;2023-07-20T13:29:53;2.63;;;1.05;;
23747;SDS011;12054;53.662;10.126;2023-07-20T13:32:19;3.75;;;0.98;;
23747;SDS011;12054;53.662;10.126;2023-07-20T13:34:45;2.38;;;0.80;;
23747;SDS011;12054;53.662;10.126;2023-07-20T13:37:10;2.92;;;0.70;;
23747;SDS011;12054;53.662;10.126;2023-07-20T13:39:37;1.77;;;1.02;;
23747;SDS011;12054;53.662;10.126;2023-07-20T13:42:03;5.75;;;0.95;;
23747;SDS011;12054;53.662;10.126;2023-07-20T13:44:30;4.68;;;0.98;;
23747;SDS011;12054;53.662;10.126;2023-07-20T13:46:56;4.30;;;0.90;;
23747;SDS011;12054;53.662;10.126;2023-07-20T13:49:22;4.28;;;1.00;;
23747;SDS011;12054;53.662;10.126;2023-07-20T13:51:48;2.50;;;0.70;;
23747;SDS011;12054;53.662;10.126;2023-07-20T13:54:13;2.38;;;0.82;;
23747;SDS011;12054;53.662;10.126;2023-07-20T13:56:39;1.92;;;0.60;;
23747;SDS011;12054;53.662;10.126;2023-07-20T13:59:05;1.70;;;0.60;;
23747;SDS011;12054;53.662;10.126;2023-07-20T14:01:30;1.23;;;0.60;;
23747;SDS011;12054;53.662;10.126;2023-07-20T14:03:58;2.85;;;0.60;;
23747;SDS011;12054;53.662;10.126;2023-07-20T14:06:24;2.60;;;0.80;;
23747;SDS011;12054;53.662;10.126;2023-07-20T14:08:49;1.00;;;0.65;;
23747;SDS011;12054;53.662;10.126;2023-07-20T14:11:15;1.83;;;0.80;;
23747;SDS011;12054;53.662;10.126;2023-07-20T14:13:41;2.03;;;0.43;;
23747;SDS011;12054;53.662;10.126;2023-07-20T14:16:07;0.68;;;0.50;;
23747;SDS011;12054;53.662;10.126;2023-07-20T14:18:33;0.35;;;0.32;;
23747;SDS011;12054;53.662;10.126;2023-07-20T14:20:59;0.90;;;0.50;;
23747;SDS011;12054;53.662;10.126;2023-07-20T14:23:24;1.38;;;0.80;;
23747;SDS011;12054;53.662;10.126;2023-07-20T14:25:50;2.65;;;0.65;;
23747;SDS011;12054;53.662;10.126;2023-07-20T14:28:16;2.83;;;0.60;;
23747;SDS011;12054;53.662;10.126;2023-07-20T14:30:41;1.33;;;0.60;;
23747;SDS011;12054;53.662;10.126;2023-07-20T14:33:07;1.17;;;0.50;;
23747;SDS011;12054;53.662;10.126;2023-07-20T14:35:33;0.85;;;0.60;;
23747;SDS011;12054;53.662;10.126;2023-07-20T14:37:59;1.77;;;0.68;;
23747;SDS011;12054;53.662;10.126;2023-07-20T14:40:25;3.13;;;0.77;;
23747;SDS011;12054;53.662;10.126;2023-07-20T14:42:51;3.03;;;0.70;;
23747;SDS011;12054;53.662;10.126;2023-07-20T14:45:17;2.10;;;0.50;;